sensor_id;sensor_type;location;lat;lon;timestamp;P1;durP1;ratioP1;P2;durP2;ratioP2
75937;SDS011;64615;32.062;34.834;2023-07-20T00:01:46;5.38;;;2.30;;
75937;SDS011;64615;32.062;34.834;2023-07-20T00:04:12;5.55;;;2.42;;
75937;SDS011;64615;32.062;34.834;2023-07-20T00:06:39;4.38;;;2.20;;
75937;SDS011;64615;32.062;34.834;2023-07-20T00:09:05;4.60;;;2.03;;
75937;SDS011;64615;32.062;34.834;2023-07-20T00:11:32;4.60;;;2.08;;
75937;SDS011;64615;32.062;34.834;2023-07-20T00:14:01;4.93;;;2.33;;
75937;SDS011;64615;32.062;34.834;2023-07-20T00:16:27;6.95;;;2.50;;
75937;SDS011;64615;32.062;34.834;2023-07-20T00:18:53;5.18;;;2.38;;
75937;SDS011;64615;32.062;34.834;2023-07-20T00:21:18;5.22;;;2.40;;
75937;SDS011;64615;32.062;34.834;2023-07-20T00:23:45;4.88;;;2.40;;
75937;SDS011;64615;32.062;34.834;2023-07-20T00:26:10;4.78;;;2.40;;
75937;SDS011;64615;32.062;34.834;2023-07-20T00:28:36;6.53;;;2.70;;
75937;SDS011;64615;32.062;34.834;2023-07-20T00:31:02;6.55;;;2.50;;
75937;SDS011;64615;32.062;34.834;2023-07-20T00:33:28;5.60;;;2.88;;
75937;SDS011;64615;32.062;34.834;2023-07-20T00:35:53;4.20;;;2.30;;
75937;SDS011;64615;32.062;34.834;2023-07-20T00:38:19;6.18;;;2.50;;
75937;SDS011;64615;32.062;34.834;2023-07-20T00:40:45;5.78;;;2.50;;
75937;SDS011;64615;32.062;34.834;2023-07-20T00:43:11;5.82;;;2.40;;
75937;SDS011;64615;32.062;34.834;2023-07-20T00:45:37;5.78;;;2.28;;
75937;SDS011;64615;32.062;34.834;2023-07-20T00:48:04;6.13;;;2.50;;
75937;SDS011;64615;32.062;34.834;2023-07-20T00:50:31;5.55;;;2.58;;
75937;SDS011;64615;32.062;34.834;2023-07-20T00:52:58;6.18;;;2.80;;
75937;SDS011;64615;32.062;34.834;2023-07-20T00:55:24;9.40;;;2.95;;
75937;SDS011;64615;32.062;34.834;2023-07-20T00:57:51;6.38;;;2.70;;
75937;SDS011;64615;32.062;34.834;2023-07-20T01:00:18;8.15;;;3.10;;
75937;SDS011;64615;32.062;34.834;2023-07-20T01:02:44;5.78;;;2.38;;
75937;SDS011;64615;32.062;34.834;2023-07-20T01:05:10;6.55;;;2.28;;
75937;SDS011;64615;32.062;34.834;2023-07-20T01:10:20;6.43;;;2.60;;
75937;SDS011;64615;32.062;34.834;2023-07-20T01:12:55;7.35;;;2.50;;
75937;SDS011;64615;32.062;34.834;2023-07-20T01:15:21;8.10;;;2.70;;
75937;SDS011;64615;32.062;34.834;2023-07-20T01:17:47;6.93;;;2.58;;
75937;SDS011;64615;32.062;34.834;2023-07-20T01:20:13;7.38;;;2.90;;
75937;SDS011;64615;32.062;34.834;2023-07-20T01:33:24;6.80;;;3.08;;
75937;SDS011;64615;32.062;34.834;2023-07-20T01:35:53;8.90;;;3.08;;
75937;SDS011;64615;32.062;34.834;2023-07-20T01:38:21;7.25;;;2.95;;
75937;SDS011;64615;32.062;34.834;2023-07-20T01:40:49;9.80;;;3.83;;
75937;SDS011;64615;32.062;34.834;2023-07-20T01:43:15;8.57;;;3.40;;
75937;SDS011;64615;32.062;34.834;2023-07-20T01:45:41;10.38;;;3.65;;
75937;SDS011;64615;32.062;34.834;2023-07-20T01:48:07;10.93;;;3.63;;
75937;SDS011;64615;32.062;34.834;2023-07-20T01:50:32;8.27;;;3.42;;
75937;SDS011;64615;32.062;34.834;2023-07-20T01:52:59;8.20;;;4.20;;
75937;SDS011;64615;32.062;34.834;2023-07-20T01:55:26;8.55;;;3.28;;
75937;SDS011;64615;32.062;34.834;2023-07-20T01:57:51;8.43;;;3.22;;
75937;SDS011;64615;32.062;34.834;2023-07-20T02:00:17;8.45;;;3.45;;
75937;SDS011;64615;32.062;34.834;2023-07-20T02:02:46;7.13;;;3.45;;
75937;SDS011;64615;32.062;34.834;2023-07-20T02:05:12;7.68;;;3.30;;
75937;SDS011;64615;32.062;34.834;2023-07-20T02:07:38;11.52;;;3.25;;
75937;SDS011;64615;32.062;34.834;2023-07-20T02:10:04;8.65;;;3.42;;
75937;SDS011;64615;32.062;34.834;2023-07-20T02:12:30;8.13;;;3.13;;
75937;SDS011;64615;32.062;34.834;2023-07-20T02:14:56;7.00;;;3.10;;
75937;SDS011;64615;32.062;34.834;2023-07-20T02:17:22;7.90;;;3.30;;
75937;SDS011;64615;32.062;34.834;2023-07-20T02:19:50;7.38;;;3.53;;
75937;SDS011;64615;32.062;34.834;2023-07-20T02:22:18;7.95;;;3.40;;
75937;SDS011;64615;32.062;34.834;2023-07-20T02:24:44;7.25;;;3.10;;
75937;SDS011;64615;32.062;34.834;2023-07-20T02:27:09;8.20;;;3.40;;
75937;SDS011;64615;32.062;34.834;2023-07-20T02:29:35;7.88;;;3.50;;
75937;SDS011;64615;32.062;34.834;2023-07-20T02:32:01;9.25;;;3.78;;
75937;SDS011;64615;32.062;34.834;2023-07-20T02:34:27;8.43;;;3.85;;
75937;SDS011;64615;32.062;34.834;2023-07-20T02:36:53;7.78;;;3.35;;
75937;SDS011;64615;32.062;34.834;2023-07-20T02:39:21;9.55;;;3.55;;
75937;SDS011;64615;32.062;34.834;2023-07-20T02:41:47;6.65;;;3.40;;
75937;SDS011;64615;32.062;34.834;2023-07-20T02:44:13;7.45;;;3.65;;
75937;SDS011;64615;32.062;34.834;2023-07-20T02:46:39;8.38;;;4.00;;
75937;SDS011;64615;32.062;34.834;2023-07-20T02:49:04;9.13;;;3.80;;
75937;SDS011;64615;32.062;34.834;2023-07-20T02:51:30;8.27;;;3.47;;
75937;SDS011;64615;32.062;34.834;2023-07-20T02:53:56;10.02;;;4.00;;
75937;SDS011;64615;32.062;34.834;2023-07-20T02:56:21;10.65;;;4.68;;
75937;SDS011;64615;32.062;34.834;2023-07-20T02:58:48;9.32;;;3.90;;
75937;SDS011;64615;32.062;34.834;2023-07-20T03:01:13;8.10;;;3.58;;
75937;SDS011;64615;32.062;34.834;2023-07-20T03:03:40;9.95;;;4.13;;
75937;SDS011;64615;32.062;34.834;2023-07-20T03:06:12;9.73;;;3.75;;
75937;SDS011;64615;32.062;34.834;2023-07-20T03:08:39;8.15;;;3.67;;
75937;SDS011;64615;32.062;34.834;2023-07-20T03:11:06;9.70;;;3.55;;
75937;SDS011;64615;32.062;34.834;2023-07-20T03:13:32;11.48;;;4.00;;
75937;SDS011;64615;32.062;34.834;2023-07-20T03:15:58;9.93;;;3.70;;
75937;SDS011;64615;32.062;34.834;2023-07-20T03:18:24;9.35;;;3.72;;
75937;SDS011;64615;32.062;34.834;2023-07-20T03:20:49;8.40;;;3.40;;
75937;SDS011;64615;32.062;34.834;2023-07-20T03:23:15;11.63;;;3.88;;
75937;SDS011;64615;32.062;34.834;2023-07-20T03:25:41;8.73;;;3.83;;
75937;SDS011;64615;32.062;34.834;2023-07-20T03:28:07;9.30;;;4.35;;
75937;SDS011;64615;32.062;34.834;2023-07-20T03:30:32;8.23;;;3.80;;
75937;SDS011;64615;32.062;34.834;2023-07-20T03:32:58;9.27;;;3.70;;
75937;SDS011;64615;32.062;34.834;2023-07-20T03:35:24;9.60;;;4.45;;
75937;SDS011;64615;32.062;34.834;2023-07-20T03:37:49;11.05;;;3.70;;
75937;SDS011;64615;32.062;34.834;2023-07-20T03:40:15;9.68;;;4.00;;
75937;SDS011;64615;32.062;34.834;2023-07-20T03:42:41;12.02;;;3.67;;
75937;SDS011;64615;32.062;34.834;2023-07-20T03:45:07;9.07;;;4.07;;
75937;SDS011;64615;32.062;34.834;2023-07-20T03:47:33;9.00;;;3.90;;
75937;SDS011;64615;32.062;34.834;2023-07-20T03:49:58;11.35;;;4.28;;
75937;SDS011;64615;32.062;34.834;2023-07-20T03:52:24;9.25;;;4.00;;
75937;SDS011;64615;32.062;34.834;2023-07-20T03:54:50;8.35;;;3.85;;
75937;SDS011;64615;32.062;34.834;2023-07-20T03:57:16;9.65;;;3.67;;
75937;SDS011;64615;32.062;34.834;2023-07-20T03:59:44;10.40;;;3.95;;
75937;SDS011;64615;32.062;34.834;2023-07-20T04:02:11;7.20;;;3.20;;
75937;SDS011;64615;32.062;34.834;2023-07-20T04:04:37;11.85;;;4.13;;
75937;SDS011;64615;32.062;34.834;2023-07-20T04:07:03;11.88;;;4.15;;
75937;SDS011;64615;32.062;34.834;2023-07-20T04:09:29;9.05;;;3.97;;
75937;SDS011;64615;32.062;34.834;2023-07-20T04:11:54;8.70;;;3.92;;
75937;SDS011;64615;32.062;34.834;2023-07-20T04:14:20;10.43;;;4.53;;
75937;SDS011;64615;32.062;34.834;2023-07-20T04:16:46;10.75;;;4.20;;
75937;SDS011;64615;32.062;34.834;2023-07-20T04:19:12;8.55;;;3.80;;
75937;SDS011;64615;32.062;34.834;2023-07-20T04:21:41;10.95;;;4.15;;
75937;SDS011;64615;32.062;34.834;2023-07-20T04:24:07;12.00;;;3.92;;
75937;SDS011;64615;32.062;34.834;2023-07-20T04:26:32;14.20;;;4.25;;
75937;SDS011;64615;32.062;34.834;2023-07-20T04:28:58;18.58;;;3.97;;
75937;SDS011;64615;32.062;34.834;2023-07-20T04:31:24;16.83;;;4.40;;
75937;SDS011;64615;32.062;34.834;2023-07-20T04:33:50;21.13;;;4.40;;
75937;SDS011;64615;32.062;34.834;2023-07-20T04:36:16;19.10;;;4.50;;
75937;SDS011;64615;32.062;34.834;2023-07-20T04:38:47;12.65;;;4.40;;
75937;SDS011;64615;32.062;34.834;2023-07-20T04:41:13;16.65;;;4.57;;
75937;SDS011;64615;32.062;34.834;2023-07-20T04:43:42;8.77;;;3.53;;
75937;SDS011;64615;32.062;34.834;2023-07-20T04:46:09;10.23;;;3.42;;
75937;SDS011;64615;32.062;34.834;2023-07-20T04:48:35;7.55;;;3.60;;
75937;SDS011;64615;32.062;34.834;2023-07-20T04:51:02;9.63;;;3.53;;
75937;SDS011;64615;32.062;34.834;2023-07-20T04:53:27;9.10;;;3.38;;
75937;SDS011;64615;32.062;34.834;2023-07-20T04:55:53;7.22;;;3.00;;
75937;SDS011;64615;32.062;34.834;2023-07-20T04:58:19;5.78;;;3.03;;
75937;SDS011;64615;32.062;34.834;2023-07-20T05:00:47;7.28;;;3.50;;
75937;SDS011;64615;32.062;34.834;2023-07-20T05:03:13;8.07;;;3.20;;
75937;SDS011;64615;32.062;34.834;2023-07-20T05:05:39;7.07;;;3.45;;
75937;SDS011;64615;32.062;34.834;2023-07-20T05:08:05;6.25;;;2.90;;
75937;SDS011;64615;32.062;34.834;2023-07-20T05:10:30;8.43;;;2.63;;
75937;SDS011;64615;32.062;34.834;2023-07-20T05:12:57;9.02;;;3.13;;
75937;SDS011;64615;32.062;34.834;2023-07-20T05:15:23;8.77;;;3.05;;
75937;SDS011;64615;32.062;34.834;2023-07-20T05:17:49;11.48;;;3.28;;
75937;SDS011;64615;32.062;34.834;2023-07-20T05:20:14;11.77;;;3.17;;
75937;SDS011;64615;32.062;34.834;2023-07-20T05:22:40;14.20;;;3.38;;
75937;SDS011;64615;32.062;34.834;2023-07-20T05:25:07;6.18;;;2.70;;
75937;SDS011;64615;32.062;34.834;2023-07-20T05:27:34;9.65;;;3.35;;
75937;SDS011;64615;32.062;34.834;2023-07-20T05:30:03;10.45;;;2.70;;
75937;SDS011;64615;32.062;34.834;2023-07-20T05:32:30;11.73;;;3.65;;
75937;SDS011;64615;32.062;34.834;2023-07-20T05:34:56;8.38;;;3.30;;
75937;SDS011;64615;32.062;34.834;2023-07-20T05:37:22;9.23;;;2.90;;
75937;SDS011;64615;32.062;34.834;2023-07-20T05:39:48;11.57;;;3.22;;
75937;SDS011;64615;32.062;34.834;2023-07-20T05:42:13;9.02;;;3.20;;
75937;SDS011;64615;32.062;34.834;2023-07-20T05:44:39;13.63;;;3.42;;
75937;SDS011;64615;32.062;34.834;2023-07-20T05:47:06;7.32;;;3.22;;
75937;SDS011;64615;32.062;34.834;2023-07-20T05:49:32;6.53;;;2.67;;
75937;SDS011;64615;32.062;34.834;2023-07-20T05:51:57;11.35;;;3.20;;
75937;SDS011;64615;32.062;34.834;2023-07-20T05:54:26;9.85;;;3.20;;
75937;SDS011;64615;32.062;34.834;2023-07-20T05:56:52;7.40;;;2.65;;
75937;SDS011;64615;32.062;34.834;2023-07-20T05:59:18;7.68;;;2.90;;
75937;SDS011;64615;32.062;34.834;2023-07-20T06:01:45;6.85;;;2.70;;
75937;SDS011;64615;32.062;34.834;2023-07-20T06:04:13;9.35;;;3.25;;
75937;SDS011;64615;32.062;34.834;2023-07-20T06:06:39;7.97;;;2.75;;
75937;SDS011;64615;32.062;34.834;2023-07-20T06:09:05;7.50;;;3.00;;
75937;SDS011;64615;32.062;34.834;2023-07-20T06:11:34;7.55;;;2.85;;
75937;SDS011;64615;32.062;34.834;2023-07-20T06:14:00;8.70;;;3.00;;
75937;SDS011;64615;32.062;34.834;2023-07-20T06:16:26;8.25;;;2.90;;
75937;SDS011;64615;32.062;34.834;2023-07-20T06:18:51;11.57;;;2.92;;
75937;SDS011;64615;32.062;34.834;2023-07-20T06:21:17;12.00;;;3.33;;
75937;SDS011;64615;32.062;34.834;2023-07-20T06:23:43;9.30;;;3.15;;
75937;SDS011;64615;32.062;34.834;2023-07-20T06:26:08;8.85;;;2.95;;
75937;SDS011;64615;32.062;34.834;2023-07-20T06:28:34;6.85;;;2.72;;
75937;SDS011;64615;32.062;34.834;2023-07-20T06:31:00;7.43;;;3.10;;
75937;SDS011;64615;32.062;34.834;2023-07-20T06:33:26;9.15;;;3.08;;
75937;SDS011;64615;32.062;34.834;2023-07-20T06:35:52;7.88;;;3.25;;
75937;SDS011;64615;32.062;34.834;2023-07-20T06:38:18;9.38;;;3.28;;
75937;SDS011;64615;32.062;34.834;2023-07-20T06:40:47;6.25;;;3.00;;
75937;SDS011;64615;32.062;34.834;2023-07-20T06:43:13;7.32;;;3.25;;
75937;SDS011;64615;32.062;34.834;2023-07-20T06:45:38;8.98;;;3.10;;
75937;SDS011;64615;32.062;34.834;2023-07-20T06:48:04;10.75;;;3.03;;
75937;SDS011;64615;32.062;34.834;2023-07-20T06:50:30;8.35;;;3.05;;
75937;SDS011;64615;32.062;34.834;2023-07-20T06:52:55;6.82;;;2.83;;
75937;SDS011;64615;32.062;34.834;2023-07-20T06:55:21;5.82;;;2.97;;
75937;SDS011;64615;32.062;34.834;2023-07-20T06:57:46;8.07;;;2.75;;
75937;SDS011;64615;32.062;34.834;2023-07-20T07:00:12;6.60;;;3.15;;
75937;SDS011;64615;32.062;34.834;2023-07-20T07:02:38;11.40;;;3.25;;
75937;SDS011;64615;32.062;34.834;2023-07-20T07:05:04;7.65;;;2.80;;
75937;SDS011;64615;32.062;34.834;2023-07-20T07:07:31;8.63;;;3.08;;
75937;SDS011;64615;32.062;34.834;2023-07-20T07:09:57;6.82;;;2.83;;
75937;SDS011;64615;32.062;34.834;2023-07-20T07:12:23;5.82;;;2.70;;
75937;SDS011;64615;32.062;34.834;2023-07-20T07:14:48;6.78;;;3.47;;
75937;SDS011;64615;32.062;34.834;2023-07-20T07:17:14;8.43;;;2.90;;
75937;SDS011;64615;32.062;34.834;2023-07-20T07:19:39;7.47;;;2.90;;
75937;SDS011;64615;32.062;34.834;2023-07-20T07:22:05;8.10;;;3.50;;
75937;SDS011;64615;32.062;34.834;2023-07-20T07:24:31;7.07;;;3.00;;
75937;SDS011;64615;32.062;34.834;2023-07-20T07:26:59;8.48;;;3.15;;
75937;SDS011;64615;32.062;34.834;2023-07-20T07:29:25;6.13;;;2.78;;
75937;SDS011;64615;32.062;34.834;2023-07-20T07:31:51;6.20;;;2.95;;
75937;SDS011;64615;32.062;34.834;2023-07-20T07:34:16;8.38;;;2.78;;
75937;SDS011;64615;32.062;34.834;2023-07-20T07:36:42;8.73;;;3.25;;
75937;SDS011;64615;32.062;34.834;2023-07-20T07:39:09;10.98;;;3.15;;
75937;SDS011;64615;32.062;34.834;2023-07-20T07:41:35;7.65;;;2.90;;
75937;SDS011;64615;32.062;34.834;2023-07-20T07:44:00;6.55;;;2.60;;
75937;SDS011;64615;32.062;34.834;2023-07-20T07:46:26;7.90;;;2.83;;
75937;SDS011;64615;32.062;34.834;2023-07-20T07:48:52;9.02;;;3.03;;
75937;SDS011;64615;32.062;34.834;2023-07-20T07:51:18;7.68;;;2.97;;
75937;SDS011;64615;32.062;34.834;2023-07-20T07:53:45;6.90;;;3.10;;
75937;SDS011;64615;32.062;34.834;2023-07-20T07:56:11;5.80;;;2.88;;
75937;SDS011;64615;32.062;34.834;2023-07-20T07:58:37;6.47;;;2.70;;
75937;SDS011;64615;32.062;34.834;2023-07-20T08:01:03;7.55;;;3.17;;
75937;SDS011;64615;32.062;34.834;2023-07-20T08:03:29;6.88;;;2.92;;
75937;SDS011;64615;32.062;34.834;2023-07-20T08:05:54;6.47;;;3.03;;
75937;SDS011;64615;32.062;34.834;2023-07-20T08:08:21;6.63;;;2.55;;
75937;SDS011;64615;32.062;34.834;2023-07-20T08:10:47;6.72;;;3.00;;
75937;SDS011;64615;32.062;34.834;2023-07-20T08:13:13;6.25;;;2.80;;
75937;SDS011;64615;32.062;34.834;2023-07-20T08:15:38;5.70;;;2.80;;
75937;SDS011;64615;32.062;34.834;2023-07-20T08:18:04;7.45;;;2.95;;
75937;SDS011;64615;32.062;34.834;2023-07-20T08:20:31;6.80;;;3.60;;
75937;SDS011;64615;32.062;34.834;2023-07-20T08:22:57;7.35;;;2.70;;
75937;SDS011;64615;32.062;34.834;2023-07-20T08:25:24;7.93;;;3.17;;
75937;SDS011;64615;32.062;34.834;2023-07-20T08:27:50;6.65;;;2.90;;
75937;SDS011;64615;32.062;34.834;2023-07-20T08:30:16;7.38;;;2.88;;
75937;SDS011;64615;32.062;34.834;2023-07-20T08:32:42;6.25;;;2.55;;
75937;SDS011;64615;32.062;34.834;2023-07-20T08:35:08;6.25;;;2.78;;
75937;SDS011;64615;32.062;34.834;2023-07-20T08:37:34;8.88;;;3.17;;
75937;SDS011;64615;32.062;34.834;2023-07-20T08:39:59;10.23;;;3.03;;
75937;SDS011;64615;32.062;34.834;2023-07-20T08:42:26;7.68;;;2.72;;
75937;SDS011;64615;32.062;34.834;2023-07-20T08:44:52;8.57;;;3.40;;
75937;SDS011;64615;32.062;34.834;2023-07-20T08:47:20;7.15;;;3.00;;
75937;SDS011;64615;32.062;34.834;2023-07-20T08:49:48;9.20;;;3.00;;
75937;SDS011;64615;32.062;34.834;2023-07-20T08:52:14;7.35;;;3.10;;
75937;SDS011;64615;32.062;34.834;2023-07-20T08:54:40;7.68;;;3.30;;
75937;SDS011;64615;32.062;34.834;2023-07-20T08:57:06;6.88;;;2.78;;
75937;SDS011;64615;32.062;34.834;2023-07-20T08:59:33;5.95;;;3.03;;
75937;SDS011;64615;32.062;34.834;2023-07-20T09:02:02;6.90;;;3.08;;
75937;SDS011;64615;32.062;34.834;2023-07-20T09:04:29;7.50;;;3.10;;
75937;SDS011;64615;32.062;34.834;2023-07-20T09:06:55;6.00;;;2.97;;
75937;SDS011;64615;32.062;34.834;2023-07-20T09:09:22;8.20;;;2.83;;
75937;SDS011;64615;32.062;34.834;2023-07-20T09:11:51;6.43;;;2.88;;
75937;SDS011;64615;32.062;34.834;2023-07-20T09:14:17;7.60;;;2.97;;
75937;SDS011;64615;32.062;34.834;2023-07-20T09:16:55;6.88;;;2.97;;
75937;SDS011;64615;32.062;34.834;2023-07-20T09:19:21;5.80;;;3.10;;
75937;SDS011;64615;32.062;34.834;2023-07-20T09:21:48;5.68;;;2.97;;
75937;SDS011;64615;32.062;34.834;2023-07-20T09:24:19;6.65;;;2.75;;
75937;SDS011;64615;32.062;34.834;2023-07-20T09:26:45;5.93;;;2.90;;
75937;SDS011;64615;32.062;34.834;2023-07-20T09:29:19;5.93;;;2.70;;
75937;SDS011;64615;32.062;34.834;2023-07-20T09:32:18;6.18;;;3.00;;
75937;SDS011;64615;32.062;34.834;2023-07-20T09:34:37;12.35;;;2.97;;
75937;SDS011;64615;32.062;34.834;2023-07-20T09:37:02;6.88;;;3.47;;
75937;SDS011;64615;32.062;34.834;2023-07-20T09:39:29;7.10;;;3.00;;
75937;SDS011;64615;32.062;34.834;2023-07-20T09:41:54;11.05;;;3.90;;
75937;SDS011;64615;32.062;34.834;2023-07-20T09:44:27;8.10;;;3.10;;
75937;SDS011;64615;32.062;34.834;2023-07-20T09:46:53;7.30;;;3.20;;
75937;SDS011;64615;32.062;34.834;2023-07-20T09:49:20;6.75;;;3.00;;
75937;SDS011;64615;32.062;34.834;2023-07-20T09:51:46;6.15;;;2.97;;
75937;SDS011;64615;32.062;34.834;2023-07-20T09:54:13;9.50;;;3.08;;
75937;SDS011;64615;32.062;34.834;2023-07-20T09:56:38;5.93;;;2.95;;
75937;SDS011;64615;32.062;34.834;2023-07-20T09:59:05;9.02;;;3.42;;
75937;SDS011;64615;32.062;34.834;2023-07-20T10:01:31;6.95;;;3.53;;
75937;SDS011;64615;32.062;34.834;2023-07-20T10:03:59;8.82;;;3.88;;
75937;SDS011;64615;32.062;34.834;2023-07-20T10:06:28;6.47;;;2.80;;
75937;SDS011;64615;32.062;34.834;2023-07-20T10:08:59;6.78;;;3.10;;
75937;SDS011;64615;32.062;34.834;2023-07-20T10:11:29;8.60;;;3.20;;
75937;SDS011;64615;32.062;34.834;2023-07-20T10:16:49;7.28;;;3.45;;
75937;SDS011;64615;32.062;34.834;2023-07-20T10:19:32;7.22;;;2.88;;
75937;SDS011;64615;32.062;34.834;2023-07-20T10:22:12;9.60;;;3.20;;
75937;SDS011;64615;32.062;34.834;2023-07-20T10:24:44;8.52;;;3.10;;
75937;SDS011;64615;32.062;34.834;2023-07-20T10:27:12;6.53;;;3.05;;
75937;SDS011;64615;32.062;34.834;2023-07-20T10:29:38;8.60;;;3.25;;
75937;SDS011;64615;32.062;34.834;2023-07-20T10:32:05;7.40;;;2.83;;
75937;SDS011;64615;32.062;34.834;2023-07-20T10:34:31;6.78;;;3.10;;
75937;SDS011;64615;32.062;34.834;2023-07-20T10:36:57;6.85;;;2.85;;
75937;SDS011;64615;32.062;34.834;2023-07-20T10:39:23;7.30;;;3.03;;
75937;SDS011;64615;32.062;34.834;2023-07-20T10:41:53;7.95;;;2.95;;
75937;SDS011;64615;32.062;34.834;2023-07-20T10:44:26;7.35;;;3.15;;
75937;SDS011;64615;32.062;34.834;2023-07-20T10:46:51;6.95;;;3.05;;
75937;SDS011;64615;32.062;34.834;2023-07-20T10:49:25;7.13;;;2.90;;
75937;SDS011;64615;32.062;34.834;2023-07-20T10:51:58;6.75;;;2.90;;
75937;SDS011;64615;32.062;34.834;2023-07-20T10:56:51;5.50;;;2.63;;
75937;SDS011;64615;32.062;34.834;2023-07-20T10:59:20;7.20;;;3.17;;
75937;SDS011;64615;32.062;34.834;2023-07-20T11:02:08;5.75;;;2.90;;
75937;SDS011;64615;32.062;34.834;2023-07-20T11:04:46;8.05;;;3.35;;
75937;SDS011;64615;32.062;34.834;2023-07-20T11:07:17;7.43;;;2.90;;
75937;SDS011;64615;32.062;34.834;2023-07-20T11:10:15;7.63;;;2.85;;
75937;SDS011;64615;32.062;34.834;2023-07-20T11:12:41;6.40;;;2.80;;
75937;SDS011;64615;32.062;34.834;2023-07-20T11:15:06;5.45;;;2.53;;
75937;SDS011;64615;32.062;34.834;2023-07-20T11:17:32;5.72;;;2.88;;
75937;SDS011;64615;32.062;34.834;2023-07-20T11:19:58;7.18;;;3.00;;
75937;SDS011;64615;32.062;34.834;2023-07-20T11:22:30;6.07;;;2.60;;
75937;SDS011;64615;32.062;34.834;2023-07-20T11:24:56;5.50;;;2.78;;
75937;SDS011;64615;32.062;34.834;2023-07-20T11:27:23;6.03;;;2.83;;
75937;SDS011;64615;32.062;34.834;2023-07-20T11:29:49;6.13;;;2.85;;
75937;SDS011;64615;32.062;34.834;2023-07-20T11:32:21;5.78;;;2.70;;
75937;SDS011;64615;32.062;34.834;2023-07-20T11:34:48;10.15;;;3.17;;
75937;SDS011;64615;32.062;34.834;2023-07-20T11:37:15;6.15;;;2.65;;
75937;SDS011;64615;32.062;34.834;2023-07-20T11:39:41;8.55;;;2.75;;
75937;SDS011;64615;32.062;34.834;2023-07-20T11:42:07;5.68;;;3.05;;
75937;SDS011;64615;32.062;34.834;2023-07-20T11:44:33;5.68;;;2.60;;
75937;SDS011;64615;32.062;34.834;2023-07-20T11:47:03;8.77;;;2.78;;
75937;SDS011;64615;32.062;34.834;2023-07-20T11:49:30;6.35;;;3.28;;
75937;SDS011;64615;32.062;34.834;2023-07-20T11:51:59;7.22;;;3.08;;
75937;SDS011;64615;32.062;34.834;2023-07-20T11:54:25;6.95;;;3.25;;
75937;SDS011;64615;32.062;34.834;2023-07-20T11:56:55;6.90;;;2.85;;
75937;SDS011;64615;32.062;34.834;2023-07-20T11:59:23;7.07;;;2.65;;
75937;SDS011;64615;32.062;34.834;2023-07-20T12:01:49;5.53;;;2.70;;
75937;SDS011;64615;32.062;34.834;2023-07-20T12:04:14;4.93;;;2.35;;
75937;SDS011;64615;32.062;34.834;2023-07-20T12:06:40;6.15;;;2.63;;
75937;SDS011;64615;32.062;34.834;2023-07-20T12:09:06;6.65;;;3.05;;
75937;SDS011;64615;32.062;34.834;2023-07-20T12:11:39;7.32;;;3.05;;
75937;SDS011;64615;32.062;34.834;2023-07-20T12:14:08;9.60;;;3.03;;
75937;SDS011;64615;32.062;34.834;2023-07-20T12:16:35;7.20;;;2.90;;
75937;SDS011;64615;32.062;34.834;2023-07-20T12:19:04;8.43;;;2.80;;
75937;SDS011;64615;32.062;34.834;2023-07-20T12:21:38;7.32;;;3.08;;
75937;SDS011;64615;32.062;34.834;2023-07-20T12:24:06;5.43;;;2.72;;
75937;SDS011;64615;32.062;34.834;2023-07-20T12:28:59;6.32;;;3.13;;
75937;SDS011;64615;32.062;34.834;2023-07-20T12:31:26;5.45;;;2.55;;
75937;SDS011;64615;32.062;34.834;2023-07-20T12:33:53;9.68;;;2.90;;
75937;SDS011;64615;32.062;34.834;2023-07-20T12:36:22;5.53;;;2.58;;
75937;SDS011;64615;32.062;34.834;2023-07-20T12:38:49;6.70;;;2.90;;
75937;SDS011;64615;32.062;34.834;2023-07-20T12:41:15;6.13;;;2.70;;
75937;SDS011;64615;32.062;34.834;2023-07-20T12:43:41;6.53;;;2.80;;
75937;SDS011;64615;32.062;34.834;2023-07-20T12:46:07;6.00;;;2.60;;
75937;SDS011;64615;32.062;34.834;2023-07-20T12:48:33;7.38;;;3.13;;
75937;SDS011;64615;32.062;34.834;2023-07-20T12:51:02;7.20;;;2.88;;
75937;SDS011;64615;32.062;34.834;2023-07-20T12:53:28;7.85;;;2.70;;
75937;SDS011;64615;32.062;34.834;2023-07-20T12:55:53;7.47;;;2.78;;
75937;SDS011;64615;32.062;34.834;2023-07-20T12:58:19;6.85;;;2.67;;
75937;SDS011;64615;32.062;34.834;2023-07-20T13:00:45;5.32;;;2.40;;
75937;SDS011;64615;32.062;34.834;2023-07-20T13:03:11;5.65;;;2.78;;
75937;SDS011;64615;32.062;34.834;2023-07-20T13:05:36;6.65;;;2.70;;
75937;SDS011;64615;32.062;34.834;2023-07-20T13:08:02;7.20;;;3.25;;
75937;SDS011;64615;32.062;34.834;2023-07-20T13:10:28;6.38;;;3.03;;
75937;SDS011;64615;32.062;34.834;2023-07-20T13:12:54;6.68;;;3.25;;
75937;SDS011;64615;32.062;34.834;2023-07-20T13:15:19;5.45;;;2.72;;
75937;SDS011;64615;32.062;34.834;2023-07-20T13:17:45;5.68;;;2.70;;
75937;SDS011;64615;32.062;34.834;2023-07-20T13:20:11;6.07;;;2.65;;
75937;SDS011;64615;32.062;34.834;2023-07-20T13:22:40;6.65;;;2.90;;
75937;SDS011;64615;32.062;34.834;2023-07-20T13:25:06;7.07;;;3.08;;
75937;SDS011;64615;32.062;34.834;2023-07-20T13:27:33;6.30;;;2.70;;
75937;SDS011;64615;32.062;34.834;2023-07-20T13:29:59;7.68;;;2.90;;
75937;SDS011;64615;32.062;34.834;2023-07-20T13:32:26;5.18;;;2.70;;
75937;SDS011;64615;32.062;34.834;2023-07-20T13:34:52;7.60;;;3.35;;
75937;SDS011;64615;32.062;34.834;2023-07-20T13:37:18;6.85;;;2.97;;
75937;SDS011;64615;32.062;34.834;2023-07-20T13:39:44;7.55;;;2.90;;
75937;SDS011;64615;32.062;34.834;2023-07-20T13:42:10;5.47;;;2.58;;
75937;SDS011;64615;32.062;34.834;2023-07-20T13:44:37;7.88;;;3.10;;
75937;SDS011;64615;32.062;34.834;2023-07-20T13:47:03;6.30;;;3.13;;
75937;SDS011;64615;32.062;34.834;2023-07-20T13:49:32;7.88;;;3.30;;
75937;SDS011;64615;32.062;34.834;2023-07-20T13:51:58;8.60;;;3.10;;
75937;SDS011;64615;32.062;34.834;2023-07-20T13:54:24;6.43;;;3.38;;
75937;SDS011;64615;32.062;34.834;2023-07-20T13:56:50;6.25;;;2.97;;
75937;SDS011;64615;32.062;34.834;2023-07-20T13:59:16;6.60;;;3.42;;
75937;SDS011;64615;32.062;34.834;2023-07-20T14:01:42;7.75;;;3.17;;
75937;SDS011;64615;32.062;34.834;2023-07-20T14:04:08;6.32;;;3.03;;
75937;SDS011;64615;32.062;34.834;2023-07-20T14:06:34;5.68;;;2.70;;
75937;SDS011;64615;32.062;34.834;2023-07-20T14:09:00;6.10;;;3.05;;
75937;SDS011;64615;32.062;34.834;2023-07-20T14:11:26;6.60;;;3.47;;
75937;SDS011;64615;32.062;34.834;2023-07-20T14:13:52;7.00;;;3.65;;
75937;SDS011;64615;32.062;34.834;2023-07-20T14:16:19;5.60;;;3.10;;
75937;SDS011;64615;32.062;34.834;2023-07-20T14:18:48;6.85;;;2.88;;
75937;SDS011;64615;32.062;34.834;2023-07-20T14:21:18;5.63;;;2.67;;
75937;SDS011;64615;32.062;34.834;2023-07-20T14:23:45;6.35;;;3.00;;
75937;SDS011;64615;32.062;34.834;2023-07-20T14:26:12;6.55;;;2.92;;
75937;SDS011;64615;32.062;34.834;2023-07-20T14:28:38;7.28;;;3.10;;
75937;SDS011;64615;32.062;34.834;2023-07-20T14:31:04;6.35;;;3.25;;
75937;SDS011;64615;32.062;34.834;2023-07-20T14:33:30;10.27;;;3.47;;
75937;SDS011;64615;32.062;34.834;2023-07-20T14:35:56;6.10;;;3.17;;
75937;SDS011;64615;32.062;34.834;2023-07-20T14:38:22;5.90;;;2.90;;
75937;SDS011;64615;32.062;34.834;2023-07-20T14:40:48;6.13;;;3.45;;
75937;SDS011;64615;32.062;34.834;2023-07-20T14:43:13;6.93;;;3.17;;
75937;SDS011;64615;32.062;34.834;2023-07-20T14:45:42;7.05;;;3.00;;
75937;SDS011;64615;32.062;34.834;2023-07-20T14:48:07;6.53;;;3.17;;
75937;SDS011;64615;32.062;34.834;2023-07-20T14:50:34;6.63;;;3.05;;
75937;SDS011;64615;32.062;34.834;2023-07-20T14:53:00;6.05;;;3.25;;